sensor_id;sensor_type;location;lat;lon;timestamp;P1;durP1;ratioP1;P2;durP2;ratioP2
24157;SDS011;12316;50.904;4.200;2023-09-19T00:02:01;13.63;;;2.70;;
24157;SDS011;12316;50.904;4.200;2023-09-19T00:04:32;13.48;;;2.53;;
24157;SDS011;12316;50.904;4.200;2023-09-19T00:06:58;16.35;;;2.97;;
24157;SDS011;12316;50.904;4.200;2023-09-19T00:09:27;11.93;;;2.55;;
24157;SDS011;12316;50.904;4.200;2023-09-19T00:11:53;13.05;;;2.60;;
24157;SDS011;12316;50.904;4.200;2023-09-19T00:14:20;10.75;;;2.40;;
24157;SDS011;12316;50.904;4.200;2023-09-19T00:16:49;10.60;;;2.35;;
24157;SDS011;12316;50.904;4.200;2023-09-19T00:19:15;13.80;;;2.47;;
24157;SDS011;12316;50.904;4.200;2023-09-19T00:21:41;13.65;;;2.85;;
24157;SDS011;12316;50.904;4.200;2023-09-19T00:24:08;15.98;;;2.80;;
24157;SDS011;12316;50.904;4.200;2023-09-19T00:26:35;13.50;;;2.20;;
24157;SDS011;12316;50.904;4.200;2023-09-19T00:29:00;16.10;;;2.72;;
24157;SDS011;12316;50.904;4.200;2023-09-19T00:31:33;11.82;;;2.33;;
24157;SDS011;12316;50.904;4.200;2023-09-19T00:33:59;11.50;;;2.88;;
24157;SDS011;12316;50.904;4.200;2023-09-19T00:36:36;13.98;;;2.60;;
24157;SDS011;12316;50.904;4.200;2023-09-19T00:39:04;9.68;;;2.40;;
24157;SDS011;12316;50.904;4.200;2023-09-19T00:41:33;8.75;;;2.30;;
24157;SDS011;12316;50.904;4.200;2023-09-19T00:44:01;17.15;;;2.38;;
24157;SDS011;12316;50.904;4.200;2023-09-19T00:46:28;12.73;;;2.42;;
24157;SDS011;12316;50.904;4.200;2023-09-19T00:48:57;14.10;;;2.92;;
24157;SDS011;12316;50.904;4.200;2023-09-19T00:51:24;10.55;;;2.30;;
24157;SDS011;12316;50.904;4.200;2023-09-19T00:53:53;13.77;;;2.78;;
24157;SDS011;12316;50.904;4.200;2023-09-19T00:56:21;13.45;;;2.22;;
24157;SDS011;12316;50.904;4.200;2023-09-19T00:58:49;10.23;;;2.40;;
24157;SDS011;12316;50.904;4.200;2023-09-19T01:01:14;11.73;;;2.70;;
24157;SDS011;12316;50.904;4.200;2023-09-19T01:03:41;12.98;;;2.88;;
24157;SDS011;12316;50.904;4.200;2023-09-19T01:06:07;13.27;;;2.60;;
24157;SDS011;12316;50.904;4.200;2023-09-19T01:08:33;12.23;;;2.70;;
24157;SDS011;12316;50.904;4.200;2023-09-19T01:11:03;14.88;;;2.40;;
24157;SDS011;12316;50.904;4.200;2023-09-19T01:13:56;12.48;;;2.42;;
24157;SDS011;12316;50.904;4.200;2023-09-19T01:30:09;11.07;;;2.53;;
24157;SDS011;12316;50.904;4.200;2023-09-19T01:32:39;8.05;;;2.17;;
24157;SDS011;12316;50.904;4.200;2023-09-19T01:35:07;11.18;;;2.50;;
24157;SDS011;12316;50.904;4.200;2023-09-19T01:37:37;11.50;;;2.30;;
24157;SDS011;12316;50.904;4.200;2023-09-19T01:40:07;10.13;;;2.38;;
24157;SDS011;12316;50.904;4.200;2023-09-19T01:48:38;12.90;;;2.83;;
24157;SDS011;12316;50.904;4.200;2023-09-19T01:51:18;14.07;;;2.78;;
24157;SDS011;12316;50.904;4.200;2023-09-19T01:54:12;13.07;;;2.88;;
24157;SDS011;12316;50.904;4.200;2023-09-19T01:59:41;10.90;;;2.40;;
24157;SDS011;12316;50.904;4.200;2023-09-19T02:02:22;12.52;;;2.40;;
24157;SDS011;12316;50.904;4.200;2023-09-19T02:04:49;10.75;;;2.38;;
24157;SDS011;12316;50.904;4.200;2023-09-19T02:07:15;12.13;;;2.97;;
24157;SDS011;12316;50.904;4.200;2023-09-19T02:09:41;13.00;;;3.00;;
24157;SDS011;12316;50.904;4.200;2023-09-19T02:12:08;15.18;;;2.80;;
24157;SDS011;12316;50.904;4.200;2023-09-19T02:14:34;10.43;;;2.25;;
24157;SDS011;12316;50.904;4.200;2023-09-19T02:17:03;10.57;;;2.50;;
24157;SDS011;12316;50.904;4.200;2023-09-19T02:19:32;16.52;;;3.22;;
24157;SDS011;12316;50.904;4.200;2023-09-19T02:21:59;12.45;;;2.83;;
24157;SDS011;12316;50.904;4.200;2023-09-19T02:24:25;13.70;;;2.42;;
24157;SDS011;12316;50.904;4.200;2023-09-19T02:26:51;18.65;;;3.03;;
24157;SDS011;12316;50.904;4.200;2023-09-19T02:29:17;15.85;;;2.72;;
24157;SDS011;12316;50.904;4.200;2023-09-19T02:31:43;13.43;;;2.70;;
24157;SDS011;12316;50.904;4.200;2023-09-19T02:34:11;16.45;;;2.80;;
24157;SDS011;12316;50.904;4.200;2023-09-19T02:36:36;10.85;;;2.40;;
24157;SDS011;12316;50.904;4.200;2023-09-19T02:39:02;12.85;;;2.55;;
24157;SDS011;12316;50.904;4.200;2023-09-19T02:41:30;15.10;;;2.70;;
24157;SDS011;12316;50.904;4.200;2023-09-19T02:43:58;18.25;;;2.70;;
24157;SDS011;12316;50.904;4.200;2023-09-19T02:46:24;12.35;;;2.58;;
24157;SDS011;12316;50.904;4.200;2023-09-19T02:48:49;13.82;;;2.72;;
24157;SDS011;12316;50.904;4.200;2023-09-19T02:51:16;11.27;;;2.53;;
24157;SDS011;12316;50.904;4.200;2023-09-19T02:53:42;12.52;;;3.10;;
24157;SDS011;12316;50.904;4.200;2023-09-19T02:56:07;14.35;;;2.58;;
24157;SDS011;12316;50.904;4.200;2023-09-19T02:58:34;10.90;;;2.40;;
24157;SDS011;12316;50.904;4.200;2023-09-19T03:01:10;13.73;;;2.60;;
24157;SDS011;12316;50.904;4.200;2023-09-19T03:03:39;12.13;;;2.70;;
24157;SDS011;12316;50.904;4.200;2023-09-19T03:06:06;10.30;;;2.60;;
24157;SDS011;12316;50.904;4.200;2023-09-19T03:08:33;9.55;;;2.20;;
24157;SDS011;12316;50.904;4.200;2023-09-19T03:11:00;11.82;;;2.30;;
24157;SDS011;12316;50.904;4.200;2023-09-19T03:13:27;12.50;;;2.50;;
24157;SDS011;12316;50.904;4.200;2023-09-19T03:15:54;11.55;;;2.45;;
24157;SDS011;12316;50.904;4.200;2023-09-19T03:18:24;9.48;;;2.10;;
24157;SDS011;12316;50.904;4.200;2023-09-19T03:20:55;9.05;;;2.25;;
24157;SDS011;12316;50.904;4.200;2023-09-19T03:23:21;11.10;;;2.38;;
24157;SDS011;12316;50.904;4.200;2023-09-19T03:25:47;10.95;;;2.50;;
24157;SDS011;12316;50.904;4.200;2023-09-19T03:28:13;11.07;;;2.63;;
24157;SDS011;12316;50.904;4.200;2023-09-19T03:30:40;13.52;;;2.70;;
24157;SDS011;12316;50.904;4.200;2023-09-19T03:33:07;12.60;;;2.50;;
24157;SDS011;12316;50.904;4.200;2023-09-19T03:35:33;14.88;;;2.85;;
24157;SDS011;12316;50.904;4.200;2023-09-19T03:37:59;13.68;;;3.30;;
24157;SDS011;12316;50.904;4.200;2023-09-19T03:40:25;11.07;;;2.17;;
24157;SDS011;12316;50.904;4.200;2023-09-19T03:42:51;10.68;;;2.75;;
24157;SDS011;12316;50.904;4.200;2023-09-19T03:45:17;15.82;;;2.75;;
24157;SDS011;12316;50.904;4.200;2023-09-19T03:47:44;11.65;;;2.67;;
24157;SDS011;12316;50.904;4.200;2023-09-19T03:50:12;11.55;;;2.45;;
24157;SDS011;12316;50.904;4.200;2023-09-19T03:52:40;16.00;;;2.70;;
24157;SDS011;12316;50.904;4.200;2023-09-19T03:55:07;15.38;;;3.13;;
24157;SDS011;12316;50.904;4.200;2023-09-19T03:57:34;11.73;;;2.60;;
24157;SDS011;12316;50.904;4.200;2023-09-19T04:00:01;14.20;;;2.65;;
24157;SDS011;12316;50.904;4.200;2023-09-19T04:02:27;16.10;;;3.38;;
24157;SDS011;12316;50.904;4.200;2023-09-19T04:04:58;12.32;;;2.65;;
24157;SDS011;12316;50.904;4.200;2023-09-19T04:07:23;11.35;;;2.70;;
24157;SDS011;12316;50.904;4.200;2023-09-19T04:09:51;13.20;;;2.67;;
24157;SDS011;12316;50.904;4.200;2023-09-19T04:12:20;13.35;;;2.28;;
24157;SDS011;12316;50.904;4.200;2023-09-19T04:14:45;13.32;;;2.80;;
24157;SDS011;12316;50.904;4.200;2023-09-19T04:17:11;16.27;;;2.30;;
24157;SDS011;12316;50.904;4.200;2023-09-19T04:19:37;15.18;;;3.42;;
24157;SDS011;12316;50.904;4.200;2023-09-19T04:22:03;15.23;;;2.95;;
24157;SDS011;12316;50.904;4.200;2023-09-19T04:24:29;12.95;;;2.60;;
24157;SDS011;12316;50.904;4.200;2023-09-19T04:26:56;12.75;;;2.97;;
24157;SDS011;12316;50.904;4.200;2023-09-19T04:29:22;14.23;;;2.95;;
24157;SDS011;12316;50.904;4.200;2023-09-19T04:31:47;12.60;;;2.67;;
24157;SDS011;12316;50.904;4.200;2023-09-19T04:34:13;15.38;;;2.63;;
24157;SDS011;12316;50.904;4.200;2023-09-19T04:36:42;12.50;;;2.63;;
24157;SDS011;12316;50.904;4.200;2023-09-19T04:39:09;10.80;;;2.45;;
24157;SDS011;12316;50.904;4.200;2023-09-19T04:41:37;14.23;;;2.85;;
24157;SDS011;12316;50.904;4.200;2023-09-19T04:44:05;13.88;;;3.15;;
24157;SDS011;12316;50.904;4.200;2023-09-19T04:46:32;13.52;;;2.53;;
24157;SDS011;12316;50.904;4.200;2023-09-19T04:48:58;13.13;;;2.53;;
24157;SDS011;12316;50.904;4.200;2023-09-19T04:51:24;15.50;;;2.63;;
24157;SDS011;12316;50.904;4.200;2023-09-19T04:53:50;11.38;;;2.55;;
24157;SDS011;12316;50.904;4.200;2023-09-19T04:56:17;11.52;;;2.72;;
24157;SDS011;12316;50.904;4.200;2023-09-19T04:58:44;16.80;;;3.03;;
24157;SDS011;12316;50.904;4.200;2023-09-19T05:01:09;12.65;;;2.70;;
24157;SDS011;12316;50.904;4.200;2023-09-19T05:03:37;14.35;;;2.70;;
24157;SDS011;12316;50.904;4.200;2023-09-19T05:06:03;14.38;;;2.70;;
24157;SDS011;12316;50.904;4.200;2023-09-19T05:08:30;15.05;;;2.67;;
24157;SDS011;12316;50.904;4.200;2023-09-19T05:10:56;13.88;;;2.50;;
24157;SDS011;12316;50.904;4.200;2023-09-19T05:13:21;16.75;;;3.25;;
24157;SDS011;12316;50.904;4.200;2023-09-19T05:15:51;11.50;;;2.30;;
24157;SDS011;12316;50.904;4.200;2023-09-19T05:18:17;12.88;;;2.15;;
24157;SDS011;12316;50.904;4.200;2023-09-19T05:20:43;12.40;;;2.35;;
24157;SDS011;12316;50.904;4.200;2023-09-19T05:23:09;11.95;;;2.15;;
24157;SDS011;12316;50.904;4.200;2023-09-19T05:25:37;11.95;;;2.50;;
24157;SDS011;12316;50.904;4.200;2023-09-19T05:28:08;14.75;;;2.75;;
24157;SDS011;12316;50.904;4.200;2023-09-19T05:30:36;16.13;;;2.35;;
24157;SDS011;12316;50.904;4.200;2023-09-19T05:33:03;10.05;;;2.70;;
24157;SDS011;12316;50.904;4.200;2023-09-19T05:35:30;17.52;;;3.00;;
24157;SDS011;12316;50.904;4.200;2023-09-19T05:37:56;10.77;;;2.08;;
24157;SDS011;12316;50.904;4.200;2023-09-19T05:40:23;13.93;;;2.33;;
24157;SDS011;12316;50.904;4.200;2023-09-19T05:42:49;12.45;;;2.35;;
24157;SDS011;12316;50.904;4.200;2023-09-19T05:45:16;10.95;;;2.60;;
24157;SDS011;12316;50.904;4.200;2023-09-19T05:47:50;11.70;;;2.50;;
24157;SDS011;12316;50.904;4.200;2023-09-19T05:50:16;13.68;;;2.90;;
24157;SDS011;12316;50.904;4.200;2023-09-19T05:52:43;14.40;;;2.78;;
24157;SDS011;12316;50.904;4.200;2023-09-19T05:55:17;14.20;;;2.28;;
24157;SDS011;12316;50.904;4.200;2023-09-19T05:57:43;12.77;;;2.30;;
24157;SDS011;12316;50.904;4.200;2023-09-19T06:00:08;13.35;;;2.20;;
24157;SDS011;12316;50.904;4.200;2023-09-19T06:02:36;12.05;;;2.33;;
24157;SDS011;12316;50.904;4.200;2023-09-19T06:05:04;15.10;;;2.97;;
24157;SDS011;12316;50.904;4.200;2023-09-19T06:07:31;10.32;;;2.83;;
24157;SDS011;12316;50.904;4.200;2023-09-19T06:10:02;15.68;;;2.70;;
24157;SDS011;12316;50.904;4.200;2023-09-19T06:12:32;11.63;;;2.78;;
24157;SDS011;12316;50.904;4.200;2023-09-19T06:15:02;12.13;;;2.67;;
24157;SDS011;12316;50.904;4.200;2023-09-19T06:17:30;13.07;;;2.38;;
24157;SDS011;12316;50.904;4.200;2023-09-19T06:19:56;15.00;;;2.75;;
24157;SDS011;12316;50.904;4.200;2023-09-19T06:22:21;9.27;;;2.25;;
24157;SDS011;12316;50.904;4.200;2023-09-19T06:24:49;8.55;;;2.05;;
24157;SDS011;12316;50.904;4.200;2023-09-19T06:27:15;14.13;;;2.35;;
24157;SDS011;12316;50.904;4.200;2023-09-19T06:29:41;12.73;;;2.53;;
24157;SDS011;12316;50.904;4.200;2023-09-19T06:32:10;13.32;;;2.72;;
24157;SDS011;12316;50.904;4.200;2023-09-19T06:34:36;11.35;;;2.28;;
24157;SDS011;12316;50.904;4.200;2023-09-19T06:37:03;9.95;;;2.50;;
24157;SDS011;12316;50.904;4.200;2023-09-19T06:39:32;10.93;;;2.25;;
24157;SDS011;12316;50.904;4.200;2023-09-19T06:41:57;10.13;;;2.38;;
24157;SDS011;12316;50.904;4.200;2023-09-19T06:44:25;10.32;;;2.15;;
24157;SDS011;12316;50.904;4.200;2023-09-19T06:46:50;12.27;;;2.45;;
24157;SDS011;12316;50.904;4.200;2023-09-19T06:49:17;11.88;;;2.42;;
24157;SDS011;12316;50.904;4.200;2023-09-19T06:51:43;11.88;;;2.83;;
24157;SDS011;12316;50.904;4.200;2023-09-19T06:54:09;13.40;;;2.33;;
24157;SDS011;12316;50.904;4.200;2023-09-19T06:56:35;12.50;;;2.10;;
24157;SDS011;12316;50.904;4.200;2023-09-19T06:59:01;9.07;;;2.00;;
24157;SDS011;12316;50.904;4.200;2023-09-19T07:01:28;13.23;;;2.40;;
24157;SDS011;12316;50.904;4.200;2023-09-19T07:03:54;11.23;;;2.10;;
24157;SDS011;12316;50.904;4.200;2023-09-19T07:06:19;11.10;;;2.22;;
24157;SDS011;12316;50.904;4.200;2023-09-19T07:08:45;10.73;;;2.30;;
24157;SDS011;12316;50.904;4.200;2023-09-19T07:11:11;13.65;;;2.20;;
24157;SDS011;12316;50.904;4.200;2023-09-19T07:13:37;13.07;;;2.45;;
24157;SDS011;12316;50.904;4.200;2023-09-19T07:16:04;9.40;;;2.53;;
24157;SDS011;12316;50.904;4.200;2023-09-19T07:18:29;8.93;;;2.10;;
24157;SDS011;12316;50.904;4.200;2023-09-19T07:20:57;9.98;;;2.40;;
24157;SDS011;12316;50.904;4.200;2023-09-19T07:23:29;11.80;;;2.30;;
24157;SDS011;12316;50.904;4.200;2023-09-19T07:26:00;13.50;;;2.78;;
24157;SDS011;12316;50.904;4.200;2023-09-19T07:28:26;9.95;;;2.10;;
24157;SDS011;12316;50.904;4.200;2023-09-19T07:30:53;17.08;;;2.47;;
24157;SDS011;12316;50.904;4.200;2023-09-19T07:33:19;14.27;;;2.63;;
24157;SDS011;12316;50.904;4.200;2023-09-19T07:35:45;12.27;;;2.63;;
24157;SDS011;12316;50.904;4.200;2023-09-19T07:38:12;12.82;;;2.22;;
24157;SDS011;12316;50.904;4.200;2023-09-19T07:40:37;9.90;;;2.30;;
24157;SDS011;12316;50.904;4.200;2023-09-19T07:43:03;12.90;;;3.00;;
24157;SDS011;12316;50.904;4.200;2023-09-19T07:45:30;13.65;;;2.67;;
24157;SDS011;12316;50.904;4.200;2023-09-19T07:47:56;10.55;;;2.75;;
24157;SDS011;12316;50.904;4.200;2023-09-19T07:50:22;11.48;;;2.40;;
24157;SDS011;12316;50.904;4.200;2023-09-19T07:52:48;11.68;;;2.65;;
24157;SDS011;12316;50.904;4.200;2023-09-19T07:55:18;12.23;;;2.67;;
24157;SDS011;12316;50.904;4.200;2023-09-19T07:57:45;13.07;;;2.63;;
24157;SDS011;12316;50.904;4.200;2023-09-19T08:00:16;15.20;;;3.28;;
24157;SDS011;12316;50.904;4.200;2023-09-19T08:02:42;14.73;;;2.60;;
24157;SDS011;12316;50.904;4.200;2023-09-19T08:05:09;13.55;;;2.80;;
24157;SDS011;12316;50.904;4.200;2023-09-19T08:07:40;11.27;;;2.70;;
24157;SDS011;12316;50.904;4.200;2023-09-19T08:10:07;10.77;;;2.72;;
24157;SDS011;12316;50.904;4.200;2023-09-19T08:12:40;11.93;;;2.78;;
24157;SDS011;12316;50.904;4.200;2023-09-19T08:15:13;15.10;;;3.20;;
24157;SDS011;12316;50.904;4.200;2023-09-19T08:17:44;10.90;;;2.50;;
24157;SDS011;12316;50.904;4.200;2023-09-19T08:20:10;13.02;;;2.45;;
24157;SDS011;12316;50.904;4.200;2023-09-19T08:22:52;17.45;;;3.05;;
24157;SDS011;12316;50.904;4.200;2023-09-19T08:25:21;13.93;;;3.10;;
24157;SDS011;12316;50.904;4.200;2023-09-19T08:27:48;9.27;;;2.70;;
24157;SDS011;12316;50.904;4.200;2023-09-19T08:30:15;10.50;;;2.47;;
24157;SDS011;12316;50.904;4.200;2023-09-19T08:32:41;9.80;;;2.70;;
24157;SDS011;12316;50.904;4.200;2023-09-19T08:35:11;11.15;;;2.47;;
24157;SDS011;12316;50.904;4.200;2023-09-19T08:37:37;8.38;;;2.30;;
24157;SDS011;12316;50.904;4.200;2023-09-19T08:40:03;10.73;;;2.40;;
24157;SDS011;12316;50.904;4.200;2023-09-19T08:42:31;10.88;;;2.55;;
24157;SDS011;12316;50.904;4.200;2023-09-19T08:44:57;12.93;;;2.63;;
24157;SDS011;12316;50.904;4.200;2023-09-19T08:47:33;10.65;;;2.28;;
24157;SDS011;12316;50.904;4.200;2023-09-19T08:50:04;13.15;;;2.70;;
24157;SDS011;12316;50.904;4.200;2023-09-19T08:52:42;9.60;;;2.40;;
24157;SDS011;12316;50.904;4.200;2023-09-19T08:55:12;10.32;;;2.20;;
24157;SDS011;12316;50.904;4.200;2023-09-19T08:57:45;12.15;;;2.83;;
24157;SDS011;12316;50.904;4.200;2023-09-19T09:00:14;9.98;;;2.28;;
24157;SDS011;12316;50.904;4.200;2023-09-19T09:02:43;11.90;;;2.25;;
24157;SDS011;12316;50.904;4.200;2023-09-19T09:05:10;11.60;;;1.90;;
24157;SDS011;12316;50.904;4.200;2023-09-19T09:07:36;11.40;;;2.35;;
24157;SDS011;12316;50.904;4.200;2023-09-19T09:10:03;11.02;;;2.72;;
24157;SDS011;12316;50.904;4.200;2023-09-19T09:12:29;11.98;;;2.67;;
24157;SDS011;12316;50.904;4.200;2023-09-19T09:14:56;12.25;;;2.72;;
24157;SDS011;12316;50.904;4.200;2023-09-19T09:17:23;12.77;;;2.92;;
24157;SDS011;12316;50.904;4.200;2023-09-19T09:19:52;12.57;;;2.60;;
24157;SDS011;12316;50.904;4.200;2023-09-19T09:22:18;12.13;;;2.50;;
24157;SDS011;12316;50.904;4.200;2023-09-19T09:24:52;8.55;;;2.60;;
24157;SDS011;12316;50.904;4.200;2023-09-19T09:29:46;11.60;;;2.20;;
24157;SDS011;12316;50.904;4.200;2023-09-19T09:32:26;9.00;;;2.40;;
24157;SDS011;12316;50.904;4.200;2023-09-19T09:34:54;9.68;;;2.30;;
24157;SDS011;12316;50.904;4.200;2023-09-19T09:37:22;9.52;;;2.13;;
24157;SDS011;12316;50.904;4.200;2023-09-19T09:39:50;10.07;;;2.22;;
24157;SDS011;12316;50.904;4.200;2023-09-19T09:42:51;8.65;;;2.15;;
24157;SDS011;12316;50.904;4.200;2023-09-19T09:47:49;8.30;;;1.90;;
24157;SDS011;12316;50.904;4.200;2023-09-19T09:50:25;9.55;;;1.98;;
24157;SDS011;12316;50.904;4.200;2023-09-19T09:53:28;10.30;;;1.92;;
24157;SDS011;12316;50.904;4.200;2023-09-19T09:56:09;7.70;;;1.85;;
24157;SDS011;12316;50.904;4.200;2023-09-19T09:58:38;9.75;;;1.85;;
24157;SDS011;12316;50.904;4.200;2023-09-19T10:01:21;5.53;;;1.88;;
24157;SDS011;12316;50.904;4.200;2023-09-19T10:03:51;10.80;;;2.33;;
24157;SDS011;12316;50.904;4.200;2023-09-19T10:06:22;9.52;;;2.15;;
24157;SDS011;12316;50.904;4.200;2023-09-19T10:11:44;8.25;;;2.00;;
24157;SDS011;12316;50.904;4.200;2023-09-19T10:14:12;9.45;;;2.10;;
24157;SDS011;12316;50.904;4.200;2023-09-19T10:16:45;8.18;;;2.15;;
24157;SDS011;12316;50.904;4.200;2023-09-19T10:19:20;5.93;;;2.05;;
24157;SDS011;12316;50.904;4.200;2023-09-19T10:21:54;9.85;;;2.20;;
24157;SDS011;12316;50.904;4.200;2023-09-19T10:24:21;8.63;;;2.33;;
24157;SDS011;12316;50.904;4.200;2023-09-19T10:26:48;7.10;;;1.70;;
24157;SDS011;12316;50.904;4.200;2023-09-19T10:29:15;7.70;;;2.03;;
24157;SDS011;12316;50.904;4.200;2023-09-19T10:31:44;7.10;;;1.73;;
24157;SDS011;12316;50.904;4.200;2023-09-19T10:34:14;10.05;;;1.90;;
24157;SDS011;12316;50.904;4.200;2023-09-19T10:36:40;7.45;;;1.70;;
24157;SDS011;12316;50.904;4.200;2023-09-19T10:39:10;8.93;;;2.03;;
24157;SDS011;12316;50.904;4.200;2023-09-19T10:41:38;7.82;;;1.98;;
24157;SDS011;12316;50.904;4.200;2023-09-19T10:44:05;7.50;;;1.83;;
24157;SDS011;12316;50.904;4.200;2023-09-19T10:46:34;5.18;;;1.38;;
24157;SDS011;12316;50.904;4.200;2023-09-19T10:49:00;7.55;;;1.85;;
24157;SDS011;12316;50.904;4.200;2023-09-19T10:51:29;8.82;;;1.52;;
24157;SDS011;12316;50.904;4.200;2023-09-19T10:54:07;6.97;;;1.45;;
24157;SDS011;12316;50.904;4.200;2023-09-19T10:56:38;6.20;;;1.35;;
24157;SDS011;12316;50.904;4.200;2023-09-19T10:59:12;5.13;;;1.40;;
24157;SDS011;12316;50.904;4.200;2023-09-19T11:01:49;4.55;;;1.40;;
24157;SDS011;12316;50.904;4.200;2023-09-19T11:07:11;6.10;;;1.55;;
24157;SDS011;12316;50.904;4.200;2023-09-19T11:12:11;6.45;;;1.73;;
24157;SDS011;12316;50.904;4.200;2023-09-19T11:14:38;3.58;;;1.30;;
24157;SDS011;12316;50.904;4.200;2023-09-19T11:30:43;8.63;;;1.50;;
24157;SDS011;12316;50.904;4.200;2023-09-19T11:33:18;4.40;;;1.38;;
24157;SDS011;12316;50.904;4.200;2023-09-19T11:49:17;6.43;;;1.63;;
24157;SDS011;12316;50.904;4.200;2023-09-19T11:51:50;8.80;;;1.37;;
24157;SDS011;12316;50.904;4.200;2023-09-19T11:54:18;5.13;;;1.30;;
24157;SDS011;12316;50.904;4.200;2023-09-19T11:56:48;5.30;;;1.25;;
24157;SDS011;12316;50.904;4.200;2023-09-19T11:59:21;5.60;;;1.38;;
24157;SDS011;12316;50.904;4.200;2023-09-19T12:01:52;3.22;;;0.80;;
24157;SDS011;12316;50.904;4.200;2023-09-19T12:04:33;6.50;;;1.65;;
24157;SDS011;12316;50.904;4.200;2023-09-19T12:07:18;5.53;;;1.17;;
24157;SDS011;12316;50.904;4.200;2023-09-19T12:09:45;9.27;;;1.50;;
24157;SDS011;12316;50.904;4.200;2023-09-19T12:12:23;7.35;;;1.20;;
24157;SDS011;12316;50.904;4.200;2023-09-19T12:14:55;6.65;;;1.13;;
24157;SDS011;12316;50.904;4.200;2023-09-19T12:17:37;4.93;;;1.25;;
24157;SDS011;12316;50.904;4.200;2023-09-19T12:20:07;5.55;;;1.25;;
24157;SDS011;12316;50.904;4.200;2023-09-19T12:25:08;3.58;;;1.00;;
24157;SDS011;12316;50.904;4.200;2023-09-19T12:27:45;3.97;;;1.20;;
24157;SDS011;12316;50.904;4.200;2023-09-19T12:30:13;4.60;;;1.25;;
24157;SDS011;12316;50.904;4.200;2023-09-19T12:32:43;6.35;;;1.45;;
24157;SDS011;12316;50.904;4.200;2023-09-19T12:35:26;4.53;;;1.20;;
24157;SDS011;12316;50.904;4.200;2023-09-19T12:37:53;7.10;;;1.20;;
24157;SDS011;12316;50.904;4.200;2023-09-19T12:40:20;5.18;;;1.08;;
24157;SDS011;12316;50.904;4.200;2023-09-19T12:42:53;6.63;;;1.20;;
24157;SDS011;12316;50.904;4.200;2023-09-19T12:45:29;6.97;;;1.42;;
24157;SDS011;12316;50.904;4.200;2023-09-19T12:48:19;5.22;;;1.30;;
24157;SDS011;12316;50.904;4.200;2023-09-19T12:53:35;5.07;;;1.25;;
24157;SDS011;12316;50.904;4.200;2023-09-19T12:56:05;6.90;;;1.38;;
24157;SDS011;12316;50.904;4.200;2023-09-19T12:58:33;7.75;;;1.25;;
24157;SDS011;12316;50.904;4.200;2023-09-19T13:01:00;3.00;;;1.13;;
24157;SDS011;12316;50.904;4.200;2023-09-19T13:03:27;5.18;;;1.10;;
24157;SDS011;12316;50.904;4.200;2023-09-19T13:06:01;3.13;;;1.10;;
24157;SDS011;12316;50.904;4.200;2023-09-19T13:08:30;5.82;;;1.33;;
24157;SDS011;12316;50.904;4.200;2023-09-19T13:11:13;5.00;;;1.40;;
24157;SDS011;12316;50.904;4.200;2023-09-19T13:13:47;4.03;;;1.17;;
24157;SDS011;12316;50.904;4.200;2023-09-19T13:16:18;7.30;;;1.35;;
24157;SDS011;12316;50.904;4.200;2023-09-19T13:18:52;6.60;;;1.20;;
24157;SDS011;12316;50.904;4.200;2023-09-19T13:21:34;6.65;;;1.48;;
24157;SDS011;12316;50.904;4.200;2023-09-19T13:24:20;5.63;;;1.30;;
24157;SDS011;12316;50.904;4.200;2023-09-19T13:26:56;4.18;;;1.33;;
24157;SDS011;12316;50.904;4.200;2023-09-19T13:29:22;5.28;;;1.10;;
24157;SDS011;12316;50.904;4.200;2023-09-19T13:31:51;4.18;;;1.17;;
24157;SDS011;12316;50.904;4.200;2023-09-19T13:34:21;3.80;;;1.35;;
24157;SDS011;12316;50.904;4.200;2023-09-19T13:36:47;3.67;;;1.30;;
24157;SDS011;12316;50.904;4.200;2023-09-19T13:39:15;5.45;;;1.20;;
24157;SDS011;12316;50.904;4.200;2023-09-19T13:41:42;3.75;;;0.90;;
24157;SDS011;12316;50.904;4.200;2023-09-19T13:44:10;5.28;;;1.33;;
24157;SDS011;12316;50.904;4.200;2023-09-19T13:46:36;4.82;;;1.73;;
24157;SDS011;12316;50.904;4.200;2023-09-19T13:49:02;4.88;;;1.20;;
24157;SDS011;12316;50.904;4.200;2023-09-19T13:51:30;4.70;;;1.20;;
24157;SDS011;12316;50.904;4.200;2023-09-19T13:53:56;5.57;;;1.38;;
24157;SDS011;12316;50.904;4.200;2023-09-19T13:56:23;3.28;;;1.33;;
24157;SDS011;12316;50.904;4.200;2023-09-19T13:58:49;5.25;;;1.38;;
24157;SDS011;12316;50.904;4.200;2023-09-19T14:01:15;5.72;;;1.30;;
24157;SDS011;12316;50.904;4.200;2023-09-19T14:03:41;4.18;;;1.58;;
24157;SDS011;12316;50.904;4.200;2023-09-19T14:06:14;5.00;;;1.50;;
24157;SDS011;12316;50.904;4.200;2023-09-19T14:08:40;3.40;;;1.33;;
24157;SDS011;12316;50.904;4.200;2023-09-19T14:11:06;3.95;;;1.33;;
24157;SDS011;12316;50.904;4.200;2023-09-19T14:13:32;3.45;;;1.38;;
24157;SDS011;12316;50.904;4.200;2023-09-19T14:16:02;4.47;;;1.60;;
24157;SDS011;12316;50.904;4.200;2023-09-19T14:18:30;4.38;;;1.33;;
24157;SDS011;12316;50.904;4.200;2023-09-19T14:20:57;6.85;;;1.90;;
24157;SDS011;12316;50.904;4.200;2023-09-19T14:23:23;3.70;;;1.52;;
24157;SDS011;12316;50.904;4.200;2023-09-19T14:25:49;6.10;;;1.60;;
24157;SDS011;12316;50.904;4.200;2023-09-19T14:28:17;4.78;;;1.70;;
24157;SDS011;12316;50.904;4.200;2023-09-19T14:30:43;3.85;;;1.50;;
24157;SDS011;12316;50.904;4.200;2023-09-19T14:33:09;4.95;;;1.67;;
24157;SDS011;12316;50.904;4.200;2023-09-19T14:35:36;5.35;;;1.50;;
24157;SDS011;12316;50.904;4.200;2023-09-19T14:38:03;8.95;;;1.65;;
24157;SDS011;12316;50.904;4.200;2023-09-19T14:40:29;5.00;;;1.48;;
24157;SDS011;12316;50.904;4.200;2023-09-19T14:42:54;5.22;;;1.73;;
24157;SDS011;12316;50.904;4.200;2023-09-19T14:45:20;4.60;;;1.33;;
24157;SDS011;12316;50.904;4.200;2023-09-19T14:47:46;5.32;;;1.48;;
24157;SDS011;12316;50.904;4.200;2023-09-19T14:50:12;5.38;;;1.50;;
24157;SDS011;12316;50.904;4.200;2023-09-19T14:52:38;4.93;;;1.50;;
24157;SDS011;12316;50.904;4.200;2023-09-19T14:55:04;5.80;;;1.60;;
24157;SDS011;12316;50.904;4.200;2023-09-19T14:57:31;5.88;;;1.50;;
24157;SDS011;12316;50.904;4.200;2023-09-19T14:59:57;6.68;;;1.73;;
24157;SDS011;12316;50.904;4.200;2023-09-19T15:02:23;6.32;;;1.70;;
24157;SDS011;12316;50.904;4.200;2023-09-19T15:04:48;10.05;;;1.80;;
24157;SDS011;12316;50.904;4.200;2023-09-19T15:07:15;6.97;;;1.95;;
24157;SDS011;12316;50.904;4.200;2023-09-19T15:09:42;7.93;;;1.70;;
24157;SDS011;12316;50.904;4.200;2023-09-19T15:12:09;7.65;;;1.67;;
24157;SDS011;12316;50.904;4.200;2023-09-19T15:14:40;6.07;;;1.80;;
24157;SDS011;12316;50.904;4.200;2023-09-19T15:17:07;8.13;;;1.77;;
24157;SDS011;12316;50.904;4.200;2023-09-19T15:19:33;7.35;;;2.00;;
24157;SDS011;12316;50.904;4.200;2023-09-19T15:21:59;6.53;;;1.98;;
24157;SDS011;12316;50.904;4.200;2023-09-19T15:24:26;7.75;;;1.80;;
24157;SDS011;12316;50.904;4.200;2023-09-19T15:26:52;6.57;;;1.80;;
24157;SDS011;12316;50.904;4.200;2023-09-19T15:29:20;5.38;;;1.77;;
24157;SDS011;12316;50.904;4.200;2023-09-19T15:31:46;9.43;;;1.92;;
24157;SDS011;12316;50.904;4.200;2023-09-19T15:34:12;5.03;;;1.70;;
24157;SDS011;12316;50.904;4.200;2023-09-19T15:36:41;7.47;;;1.92;;
24157;SDS011;12316;50.904;4.200;2023-09-19T15:39:07;7.65;;;1.95;;
24157;SDS011;12316;50.904;4.200;2023-09-19T15:41:39;6.28;;;1.85;;
24157;SDS011;12316;50.904;4.200;2023-09-19T15:44:13;8.65;;;1.85;;
24157;SDS011;12316;50.904;4.200;2023-09-19T15:46:40;5.50;;;1.83;;
24157;SDS011;12316;50.904;4.200;2023-09-19T15:49:06;7.03;;;2.05;;
24157;SDS011;12316;50.904;4.200;2023-09-19T15:51:34;5.95;;;1.80;;
24157;SDS011;12316;50.904;4.200;2023-09-19T15:54:07;8.52;;;1.90;;
24157;SDS011;12316;50.904;4.200;2023-09-19T15:56:34;5.38;;;1.60;;
24157;SDS011;12316;50.904;4.200;2023-09-19T15:59:00;6.20;;;1.60;;